Time;durP1;ratioP1;P1;durP2;ratioP2;P2;SDS_P1;SDS_P2;PMS_P1;PMS_P2;Temp;Humidity;BMP_temperature;BMP_pressure;BME280_temperature;BME280_humidity;BME280_pressure;Samples;Min_cycle;Max_cycle;Signal;HPM_P1;HPM_P2
2021/06/22 00:00:50;;;;;;;1.45;1.08;;;27.70;71.20;;;;;;5064685;28;20035;-35
2021/06/22 00:03:16;;;;;;;1.83;1.10;;;27.70;71.10;;;;;;5064612;28;20025;-36
2021/06/22 00:05:42;;;;;;;1.77;1.23;;;27.70;71.10;;;;;;5064493;28;20028;-36
2021/06/22 00:08:08;;;;;;;1.10;1.00;;;27.70;71.20;;;;;;5062641;28;20021;-36
2021/06/22 00:10:34;;;;;;;1.33;1.15;;;27.70;71.10;;;;;;5064185;28;20036;-36
2021/06/22 00:13:01;;;;;;;1.17;0.90;;;27.70;71.10;;;;;;5064452;28;20029;-36
2021/06/22 00:15:28;;;;;;;1.33;1.02;;;27.70;71.10;;;;;;5063124;28;20032;-36
2021/06/22 00:17:54;;;;;;;;;;;27.70;71.20;;;;;;5063082;28;20049;-36
2021/06/22 00:20:21;;;;;;;1.27;1.08;;;27.60;71.10;;;;;;5064394;28;19955;-36
2021/06/22 00:22:47;;;;;;;;;;;27.70;71.20;;;;;;5064373;28;20044;-36
2021/06/22 00:25:14;;;;;;;1.30;0.98;;;27.60;71.10;;;;;;5062385;28;19908;-36
2021/06/22 00:27:40;;;;;;;1.20;1.02;;;27.60;71.20;;;;;;5057754;28;20553;-36
2021/06/22 00:30:07;;;;;;;1.40;1.20;;;27.60;71.10;;;;;;5043084;28;20030;-36
2021/06/22 00:32:34;;;;;;;1.10;0.90;;;27.60;71.20;;;;;;5043887;28;20044;-36
2021/06/22 00:35:00;;;;;;;1.30;1.08;;;27.60;71.30;;;;;;5043999;28;20033;-36
2021/06/22 00:37:26;;;;;;;1.37;1.00;;;27.60;71.30;;;;;;5043918;28;20029;-36
2021/06/22 00:39:52;;;;;;;1.80;1.20;;;27.60;71.20;;;;;;5042445;28;20033;-36
2021/06/22 00:42:18;;;;;;;1.53;1.10;;;27.50;71.10;;;;;;5043605;28;20026;-36
2021/06/22 00:44:45;;;;;;;1.33;0.90;;;27.60;71.20;;;;;;5043812;28;20034;-36
2021/06/22 00:47:12;;;;;;;1.40;1.17;;;27.60;71.10;;;;;;5043630;28;20163;-36
2021/06/22 00:49:38;;;;;;;1.70;1.17;;;27.50;71.00;;;;;;5043702;28;20025;-36
2021/06/22 00:52:04;;;;;;;1.20;1.10;;;27.60;71.10;;;;;;5043710;28;20029;-35
2021/06/22 00:54:30;;;;;;;2.35;1.20;;;27.50;71.10;;;;;;5043445;28;20036;-36
2021/06/22 00:56:57;;;;;;;2.08;1.23;;;27.50;71.00;;;;;;5043935;28;20071;-36
2021/06/22 00:59:23;;;;;;;1.77;1.17;;;27.50;71.00;;;;;;5045625;28;20047;-36
2021/06/22 01:01:51;;;;;;;1.50;0.90;;;27.50;71.00;;;;;;5063242;28;20029;-37
2021/06/22 01:04:17;;;;;;;0.88;0.85;;;27.50;71.00;;;;;;5063406;28;20104;-36
2021/06/22 01:06:43;;;;;;;1.17;1.05;;;27.50;71.10;;;;;;5061844;28;20091;-36
2021/06/22 01:09:09;;;;;;;0.97;0.83;;;27.50;71.10;;;;;;5055796;28;20031;-35
2021/06/22 01:11:38;;;;;;;1.70;1.20;;;27.50;71.00;;;;;;5063148;28;20037;-36
2021/06/22 01:14:04;;;;;;;1.42;1.10;;;27.50;71.00;;;;;;5063148;28;20096;-36
2021/06/22 01:16:30;;;;;;;1.30;0.97;;;27.50;71.00;;;;;;5062952;28;20045;-36
2021/06/22 01:19:01;;;;;;;2.17;1.23;;;27.50;71.00;;;;;;5063162;28;20035;-36
2021/06/22 01:21:28;;;;;;;1.10;1.00;;;27.40;71.00;;;;;;5061497;28;20052;-36
2021/06/22 01:23:54;;;;;;;;;;;27.40;71.00;;;;;;5063147;28;20029;-36
2021/06/22 01:26:20;;;;;;;1.42;0.90;;;27.40;71.10;;;;;;5061459;28;19923;-36
2021/06/22 01:28:46;;;;;;;1.73;1.40;;;27.40;71.00;;;;;;5063016;28;20027;-36
2021/06/22 01:31:13;;;;;;;1.33;1.10;;;27.40;71.00;;;;;;5062947;28;20036;-36
2021/06/22 01:33:43;;;;;;;1.65;0.93;;;27.40;71.00;;;;;;5061388;28;20270;-36
2021/06/22 01:36:09;;;;;;;1.83;0.95;;;27.40;71.00;;;;;;5062811;28;20025;-36
2021/06/22 01:38:36;;;;;;;2.10;1.10;;;27.40;71.10;;;;;;5060402;28;20040;-36
2021/06/22 01:41:02;;;;;;;1.38;0.90;;;27.40;71.10;;;;;;5062656;28;20017;-36
2021/06/22 01:43:28;;;;;;;2.28;1.30;;;27.40;71.00;;;;;;5062336;28;20548;-36
2021/06/22 01:45:54;;;;;;;1.37;0.90;;;27.30;71.00;;;;;;5062703;28;20037;-36
2021/06/22 01:48:20;;;;;;;2.00;1.10;;;27.30;70.90;;;;;;5062564;28;20481;-37
2021/06/22 01:50:46;;;;;;;1.27;1.00;;;27.30;70.90;;;;;;5061467;28;20784;-37
2021/06/22 01:53:13;;;;;;;1.85;1.02;;;27.30;71.00;;;;;;5062180;28;20041;-37
2021/06/22 01:55:41;;;;;;;2.00;1.00;;;27.30;71.00;;;;;;5062497;28;20036;-37
2021/06/22 01:58:11;;;;;;;2.05;1.00;;;27.30;71.00;;;;;;5062729;28;20028;-38
2021/06/22 02:00:38;;;;;;;1.48;1.02;;;27.30;71.00;;;;;;5059142;28;20029;-38
2021/06/22 02:03:05;;;;;;;1.10;0.90;;;27.30;71.00;;;;;;5042334;28;20560;-38
2021/06/22 02:05:31;;;;;;;1.10;1.00;;;27.20;70.90;;;;;;5042474;28;20045;-38
2021/06/22 02:07:57;;;;;;;1.85;1.00;;;27.30;71.00;;;;;;5053273;28;20063;-36
2021/06/22 02:10:23;;;;;;;2.03;0.90;;;27.30;71.00;;;;;;5051733;28;20028;-36
2021/06/22 02:12:49;;;;;;;2.43;0.90;;;27.20;70.70;;;;;;5048034;28;20025;-37
2021/06/22 02:15:16;;;;;;;1.43;1.00;;;27.30;70.90;;;;;;5054466;28;20028;-37
2021/06/22 02:17:42;;;;;;;1.23;1.00;;;27.20;70.80;;;;;;5051581;28;20053;-37
2021/06/22 02:20:09;;;;;;;1.00;0.90;;;27.20;70.70;;;;;;5049822;28;20029;-36
2021/06/22 02:22:35;;;;;;;;;;;27.20;70.90;;;;;;5048473;28;20022;-36
2021/06/22 02:25:02;;;;;;;1.42;1.20;;;27.20;70.80;;;;;;5054453;28;19905;-36
2021/06/22 02:27:30;;;;;;;0.90;0.70;;;27.20;70.80;;;;;;5047815;28;20497;-36
2021/06/22 02:29:57;;;;;;;2.55;1.10;;;27.20;70.80;;;;;;5053200;28;20037;-37
2021/06/22 02:32:24;;;;;;;1.35;1.08;;;27.20;70.90;;;;;;5050476;28;20074;-37
2021/06/22 02:34:50;;;;;;;2.35;1.05;;;27.10;70.80;;;;;;5050234;28;20033;-36
2021/06/22 02:37:16;;;;;;;1.27;1.07;;;27.10;70.80;;;;;;5055745;28;20071;-36
2021/06/22 02:39:43;;;;;;;1.63;1.10;;;27.10;70.80;;;;;;5043511;28;20030;-37
2021/06/22 02:42:09;;;;;;;;;;;27.10;70.80;;;;;;5042735;28;20112;-37
2021/06/22 02:44:35;;;;;;;1.20;1.00;;;27.10;70.90;;;;;;5042066;28;19956;-36
2021/06/22 02:47:02;;;;;;;1.42;1.10;;;27.10;70.90;;;;;;5042129;28;20041;-36
2021/06/22 02:49:28;;;;;;;1.83;0.88;;;27.10;70.90;;;;;;5042271;28;20557;-36
2021/06/22 02:51:54;;;;;;;1.65;1.08;;;27.10;70.90;;;;;;5042042;28;20068;-37
2021/06/22 02:54:20;;;;;;;2.30;1.15;;;27.00;70.90;;;;;;5045102;28;20021;-37
2021/06/22 02:56:46;;;;;;;2.00;0.90;;;27.10;71.00;;;;;;5045917;28;20025;-36
2021/06/22 02:59:12;;;;;;;2.17;1.13;;;27.10;70.90;;;;;;5045704;28;20033;-37
2021/06/22 03:01:39;;;;;;;1.90;1.00;;;27.10;71.00;;;;;;5044444;28;20488;-36
2021/06/22 03:04:05;;;;;;;1.40;1.00;;;27.00;70.90;;;;;;5045630;28;20030;-37
2021/06/22 03:06:31;;;;;;;2.33;0.80;;;27.00;70.90;;;;;;5047339;28;20038;-37
2021/06/22 03:08:57;;;;;;;1.48;1.05;;;27.00;70.90;;;;;;5064683;28;20285;-37
2021/06/22 03:11:24;;;;;;;1.65;1.10;;;27.00;70.90;;;;;;5065561;28;20028;-37
2021/06/22 03:13:50;;;;;;;0.80;0.80;;;27.00;70.90;;;;;;5065484;28;20535;-37
2021/06/22 03:16:16;;;;;;;2.28;0.90;;;27.00;70.80;;;;;;5065461;28;20067;-37
2021/06/22 03:18:42;;;;;;;1.27;0.90;;;26.90;70.80;;;;;;5065507;28;20029;-36
2021/06/22 03:21:08;;;;;;;2.10;0.98;;;27.00;70.80;;;;;;5065452;28;20032;-36
2021/06/22 03:23:34;;;;;;;3.05;1.10;;;27.00;70.80;;;;;;5063645;28;20056;-36
2021/06/22 03:26:01;;;;;;;1.75;0.98;;;26.90;70.60;;;;;;5065099;28;20029;-36
2021/06/22 03:28:27;;;;;;;1.87;1.10;;;26.90;70.70;;;;;;5065181;28;20036;-37
2021/06/22 03:30:53;;;;;;;2.20;1.02;;;26.90;70.60;;;;;;5065392;28;20029;-37
2021/06/22 03:33:20;;;;;;;2.42;0.90;;;26.90;70.70;;;;;;5064882;28;20029;-37
2021/06/22 03:35:46;;;;;;;2.28;1.10;;;26.90;70.70;;;;;;5065308;28;20102;-37
2021/06/22 03:38:12;;;;;;;1.50;0.90;;;26.90;70.70;;;;;;5048682;28;20111;-36
2021/06/22 03:40:38;;;;;;;1.70;1.00;;;26.90;70.60;;;;;;5044897;28;20025;-36
2021/06/22 03:43:07;;;;;;;1.70;1.13;;;26.90;70.70;;;;;;5044977;28;20025;-37
2021/06/22 03:45:33;;;;;;;1.70;1.08;;;26.80;70.70;;;;;;5043220;28;20112;-37
2021/06/22 03:47:59;;;;;;;0.80;0.80;;;26.80;70.70;;;;;;5044931;28;20034;-37
2021/06/22 03:50:26;;;;;;;2.30;1.00;;;26.80;70.70;;;;;;5044781;28;20029;-36
2021/06/22 03:52:52;;;;;;;2.37;1.13;;;26.80;70.70;;;;;;5044664;28;20037;-36
2021/06/22 03:55:36;;;;;;;1.20;1.00;;;26.80;70.70;;;;;;5043013;28;20489;-37
2021/06/22 03:58:03;;;;;;;1.00;0.90;;;26.80;70.70;;;;;;5044787;28;20081;-37
2021/06/22 04:00:29;;;;;;;;;;;26.70;70.70;;;;;;5045168;28;20041;-37
2021/06/22 04:02:59;;;;;;;1.52;1.05;;;26.70;70.50;;;;;;5044679;28;19909;-37
2021/06/22 04:05:27;;;;;;;1.70;1.00;;;26.70;70.60;;;;;;5047932;28;20032;-36
2021/06/22 04:07:53;;;;;;;2.17;0.98;;;26.80;71.40;;;;;;5052607;28;20037;-37
2021/06/22 04:10:19;;;;;;;1.37;0.87;;;26.70;71.30;;;;;;5050129;28;20025;-37
2021/06/22 04:12:45;;;;;;;1.37;0.90;;;26.70;70.60;;;;;;5050488;28;20615;-36
2021/06/22 04:15:12;;;;;;;1.73;1.00;;;26.70;70.70;;;;;;5053587;28;20133;-36
2021/06/22 04:17:38;;;;;;;1.10;0.90;;;26.70;70.60;;;;;;5050451;28;20139;-36
2021/06/22 04:20:05;;;;;;;2.03;1.00;;;26.70;70.60;;;;;;5050086;28;20043;-36
2021/06/22 04:22:31;;;;;;;1.10;0.85;;;26.70;70.60;;;;;;5049610;28;20041;-36
2021/06/22 04:24:58;;;;;;;1.27;1.00;;;26.70;70.50;;;;;;5050838;28;20140;-36
2021/06/22 04:27:24;;;;;;;1.77;1.00;;;26.70;70.60;;;;;;5057104;28;20043;-37
2021/06/22 04:29:50;;;;;;;1.05;0.70;;;26.70;70.50;;;;;;5050821;28;20029;-37
2021/06/22 04:32:16;;;;;;;1.00;0.70;;;26.70;70.40;;;;;;5053405;28;20033;-36
2021/06/22 04:34:43;;;;;;;1.60;0.80;;;26.70;70.50;;;;;;5053013;28;20036;-37
2021/06/22 04:37:09;;;;;;;0.82;0.70;;;26.70;70.40;;;;;;5058485;28;20139;-36
2021/06/22 04:39:35;;;;;;;1.30;1.00;;;26.60;70.30;;;;;;5046187;28;20032;-37
2021/06/22 04:42:01;;;;;;;0.85;0.73;;;26.60;70.40;;;;;;5043893;28;20108;-36
2021/06/22 04:44:27;;;;;;;1.07;0.97;;;26.60;70.40;;;;;;5043635;28;20038;-36
2021/06/22 04:46:53;;;;;;;1.53;0.90;;;26.60;70.50;;;;;;5043703;28;20042;-37
2021/06/22 04:49:19;;;;;;;2.53;1.17;;;26.60;70.50;;;;;;5043638;28;20030;-36
2021/06/22 04:51:45;;;;;;;1.58;1.00;;;26.60;70.60;;;;;;5043679;28;20033;-36
2021/06/22 04:54:12;;;;;;;1.33;0.90;;;26.50;70.30;;;;;;5043050;28;20856;-36
2021/06/22 04:56:40;;;;;;;1.75;0.98;;;26.50;70.50;;;;;;5043591;28;20041;-37
2021/06/22 04:59:06;;;;;;;1.90;0.90;;;26.50;70.50;;;;;;5042298;28;20026;-36
2021/06/22 05:01:32;;;;;;;1.73;1.00;;;26.50;70.60;;;;;;5043502;28;20549;-36
2021/06/22 05:03:58;;;;;;;1.88;0.82;;;26.50;70.50;;;;;;5043216;28;20026;-36
2021/06/22 05:06:24;;;;;;;1.70;0.90;;;26.50;70.50;;;;;;5042753;28;20132;-36
2021/06/22 05:08:51;;;;;;;2.25;0.60;;;26.50;70.40;;;;;;5050977;28;20788;-37
2021/06/22 05:11:17;;;;;;;2.28;0.90;;;26.50;70.40;;;;;;5043367;28;20045;-37
2021/06/22 05:13:43;;;;;;;2.08;0.90;;;26.50;70.50;;;;;;5043330;28;20025;-36
2021/06/22 05:16:09;;;;;;;2.10;0.90;;;26.50;70.40;;;;;;5042469;28;20068;-37
2021/06/22 05:18:37;;;;;;;0.88;0.77;;;26.50;70.30;;;;;;5056169;28;20673;-37
2021/06/22 05:21:03;;;;;;;1.27;0.80;;;26.50;70.20;;;;;;5062989;28;20021;-37
2021/06/22 05:23:29;;;;;;;1.25;0.88;;;26.40;70.30;;;;;;5063012;28;20036;-36
2021/06/22 05:25:56;;;;;;;1.27;0.80;;;26.40;70.20;;;;;;5062653;28;20037;-37
2021/06/22 05:28:22;;;;;;;2.00;0.70;;;26.40;70.10;;;;;;5061510;28;20031;-36
2021/06/22 05:30:48;;;;;;;2.37;1.00;;;26.40;70.20;;;;;;5062819;28;20091;-36
2021/06/22 05:33:14;;;;;;;0.68;0.68;;;26.40;69.90;;;;;;5062984;28;20081;-36
2021/06/22 05:35:40;;;;;;;1.40;0.90;;;26.40;70.10;;;;;;5062492;28;20071;-36
2021/06/22 05:38:07;;;;;;;0.87;0.80;;;26.40;70.10;;;;;;5060965;28;20032;-37
2021/06/22 05:40:33;;;;;;;1.00;0.70;;;26.40;70.00;;;;;;5062699;28;20025;-36
2021/06/22 05:42:59;;;;;;;0.90;0.70;;;26.40;70.20;;;;;;5062740;28;20035;-36
2021/06/22 05:45:25;;;;;;;1.58;0.90;;;26.40;70.20;;;;;;5062580;28;20036;-36
2021/06/22 05:47:51;;;;;;;1.87;1.00;;;26.40;70.20;;;;;;5062582;28;20025;-37
2021/06/22 05:50:17;;;;;;;1.67;0.80;;;26.40;70.30;;;;;;5061159;28;20136;-37
2021/06/22 05:52:45;;;;;;;2.65;0.80;;;26.30;70.30;;;;;;5057406;28;20040;-36
2021/06/22 05:55:18;;;;;;;2.10;1.00;;;26.30;70.30;;;;;;5042260;28;20032;-36
2021/06/22 05:57:46;;;;;;;1.48;0.80;;;26.30;70.30;;;;;;5042615;28;20105;-36
2021/06/22 06:00:12;;;;;;;0.80;0.70;;;26.30;70.30;;;;;;5042413;28;20027;-36
2021/06/22 06:02:38;;;;;;;2.10;0.80;;;26.30;70.40;;;;;;5042653;28;20025;-36
2021/06/22 06:05:05;;;;;;;1.08;0.80;;;26.30;70.40;;;;;;5042577;28;20592;-37
2021/06/22 06:07:31;;;;;;;3.75;0.90;;;26.30;70.40;;;;;;5043025;28;20091;-36
2021/06/22 06:09:57;;;;;;;1.17;0.80;;;26.30;70.30;;;;;;5061658;28;20516;-36
2021/06/22 06:12:23;;;;;;;1.77;0.90;;;26.30;70.20;;;;;;5054995;28;20048;-37
2021/06/22 06:14:49;;;;;;;0.77;0.70;;;26.20;70.10;;;;;;5042603;28;20078;-37
2021/06/22 06:17:16;;;;;;;1.08;0.75;;;26.20;70.10;;;;;;5046089;28;20041;-36
2021/06/22 06:19:42;;;;;;;1.00;0.80;;;26.20;70.00;;;;;;5062207;28;20092;-36
2021/06/22 06:22:08;;;;;;;1.02;0.80;;;26.20;70.00;;;;;;5062357;28;20040;-36
2021/06/22 06:24:35;;;;;;;1.80;0.77;;;26.20;70.00;;;;;;5043110;28;20555;-37
2021/06/22 06:27:11;;;;;;;0.93;0.77;;;26.20;70.10;;;;;;5041904;28;20042;-36
2021/06/22 06:32:13;;;;;;;1.30;1.00;;;26.20;70.00;;;;;;5046568;28;20029;-37
2021/06/22 06:34:39;;;;;;;1.15;0.70;;;26.20;70.80;;;;;;5046296;28;20100;-37
2021/06/22 06:37:05;;;;;;;1.98;0.93;;;26.20;70.00;;;;;;5045883;28;20029;-37
2021/06/22 06:39:31;;;;;;;1.00;0.65;;;26.10;70.00;;;;;;5046234;28;20056;-37
2021/06/22 06:41:57;;;;;;;2.17;0.93;;;26.10;70.10;;;;;;5046208;28;20082;-37
2021/06/22 06:44:24;;;;;;;1.97;1.07;;;26.10;70.00;;;;;;5046241;28;20046;-36
2021/06/22 06:46:50;;;;;;;0.80;0.70;;;26.10;70.10;;;;;;5045829;28;20825;-37
2021/06/22 06:49:16;;;;;;;1.38;0.75;;;26.10;70.20;;;;;;5045929;28;20037;-36
2021/06/22 06:51:42;;;;;;;1.02;0.70;;;26.10;70.20;;;;;;5046060;28;20033;-37
2021/06/22 06:54:08;;;;;;;2.33;1.10;;;26.10;70.30;;;;;;5053414;28;20022;-37
2021/06/22 06:56:34;;;;;;;1.73;0.90;;;26.10;70.30;;;;;;5055355;28;20504;-37
2021/06/22 06:59:01;;;;;;;0.90;0.80;;;26.10;70.20;;;;;;5057103;28;20040;-36
2021/06/22 07:01:27;;;;;;;1.42;0.88;;;26.10;70.30;;;;;;5056075;28;20164;-37
2021/06/22 07:03:55;;;;;;;1.20;0.80;;;26.10;70.30;;;;;;5055086;28;20022;-37
2021/06/22 07:06:21;;;;;;;1.25;0.70;;;26.10;70.40;;;;;;5051074;28;20044;-37
2021/06/22 07:08:47;;;;;;;1.02;0.80;;;26.10;70.20;;;;;;5053251;28;20033;-36
2021/06/22 07:11:16;;;;;;;4.45;0.95;;;26.10;70.30;;;;;;5057705;28;20124;-37
2021/06/22 07:13:42;;;;;;;1.50;0.80;;;26.10;70.20;;;;;;5054319;28;20025;-36
2021/06/22 07:16:08;;;;;;;3.22;0.90;;;26.00;70.10;;;;;;5052032;28;20401;-37
2021/06/22 07:18:34;;;;;;;1.45;0.80;;;26.00;70.20;;;;;;5056715;28;20060;-37
2021/06/22 07:21:01;;;;;;;1.33;0.90;;;26.00;70.20;;;;;;5054823;28;20032;-37
2021/06/22 07:23:27;;;;;;;0.65;0.65;;;26.00;70.20;;;;;;5060374;28;20025;-36
2021/06/22 07:25:53;;;;;;;1.73;0.90;;;26.00;70.20;;;;;;5065280;28;20029;-36
2021/06/22 07:28:19;;;;;;;1.90;1.20;;;26.00;70.20;;;;;;5063780;28;20044;-36
2021/06/22 07:30:45;;;;;;;3.03;0.80;;;26.00;70.10;;;;;;5065462;28;20114;-37
2021/06/22 07:33:12;;;;;;;0.93;0.60;;;26.00;70.20;;;;;;5065344;28;20036;-36
2021/06/22 07:35:38;;;;;;;1.48;0.80;;;26.00;70.20;;;;;;5065220;28;20063;-36
2021/06/22 07:38:04;;;;;;;0.98;0.60;;;26.00;70.10;;;;;;5064468;28;20055;-36
2021/06/22 07:40:30;;;;;;;1.37;0.67;;;26.00;70.30;;;;;;5065032;28;20029;-37
2021/06/22 07:42:57;;;;;;;1.48;0.90;;;26.00;70.20;;;;;;5063631;28;20062;-37
2021/06/22 07:45:23;;;;;;;1.63;0.80;;;26.00;70.30;;;;;;5065204;28;20021;-36
2021/06/22 07:47:49;;;;;;;1.00;0.60;;;26.00;70.30;;;;;;5063265;28;20045;-36
2021/06/22 07:50:15;;;;;;;1.63;0.90;;;25.90;70.30;;;;;;5065065;28;20470;-36
2021/06/22 07:52:42;;;;;;;1.10;0.70;;;25.90;70.30;;;;;;5064932;28;20100;-37
2021/06/22 07:55:13;;;;;;;0.65;0.60;;;25.90;70.40;;;;;;5063047;28;20028;-37
2021/06/22 07:57:45;;;;;;;0.65;0.60;;;25.90;70.30;;;;;;5064704;28;20029;-36
2021/06/22 08:00:38;;;;;;;0.98;0.80;;;25.90;70.30;;;;;;5064750;28;20025;-36
2021/06/22 08:03:08;;;;;;;1.98;0.70;;;25.90;70.50;;;;;;5064655;28;20040;-36
2021/06/22 08:05:34;;;;;;;1.20;0.77;;;25.90;70.50;;;;;;5062181;28;20095;-36
2021/06/22 08:08:01;;;;;;;1.00;0.70;;;25.90;70.40;;;;;;5064163;28;20048;-36
2021/06/22 08:10:27;;;;;;;2.90;0.90;;;25.90;70.40;;;;;;5064301;28;20052;-36
2021/06/22 08:12:53;;;;;;;1.00;0.70;;;25.80;70.30;;;;;;5064566;28;20032;-38
2021/06/22 08:15:20;;;;;;;1.40;0.73;;;25.90;70.40;;;;;;5053228;28;20033;-36
2021/06/22 08:17:46;;;;;;;1.37;0.70;;;25.80;70.30;;;;;;5046681;28;20053;-36
2021/06/22 08:20:12;;;;;;;1.38;0.80;;;25.80;70.30;;;;;;5044253;28;20266;-36
2021/06/22 08:22:39;;;;;;;1.58;0.70;;;25.80;70.30;;;;;;5047444;28;20033;-37
2021/06/22 08:25:06;;;;;;;1.00;0.60;;;25.80;70.30;;;;;;5063938;28;20025;-37
2021/06/22 08:27:32;;;;;;;1.02;0.73;;;25.80;70.40;;;;;;5062904;28;20281;-36
2021/06/22 08:29:58;;;;;;;0.75;0.65;;;25.80;70.30;;;;;;5062897;28;20032;-36
2021/06/22 08:32:24;;;;;;;1.70;0.50;;;25.80;70.40;;;;;;5064152;28;20061;-36
2021/06/22 08:34:51;;;;;;;0.70;0.70;;;25.80;70.40;;;;;;5064231;28;20052;-36
2021/06/22 08:37:17;;;;;;;1.45;0.70;;;25.80;70.30;;;;;;5063943;28;20035;-37
2021/06/22 08:39:43;;;;;;;1.25;1.05;;;25.80;70.40;;;;;;5064091;28;20032;-36
2021/06/22 08:42:10;;;;;;;0.90;0.63;;;25.80;70.40;;;;;;5063918;28;20516;-36
2021/06/22 08:44:37;;;;;;;0.60;0.60;;;25.70;70.20;;;;;;5062938;28;20104;-37
2021/06/22 08:47:03;;;;;;;1.15;0.75;;;25.80;70.50;;;;;;5063746;28;20056;-37
2021/06/22 08:49:31;;;;;;;3.10;0.77;;;25.80;70.50;;;;;;5062669;28;20013;-36
2021/06/22 08:51:57;;;;;;;0.82;0.70;;;25.80;70.50;;;;;;5061832;28;20045;-36
2021/06/22 08:54:23;;;;;;;0.80;0.60;;;25.70;70.50;;;;;;5063603;28;20048;-36
2021/06/22 08:56:50;;;;;;;1.75;0.60;;;25.70;70.40;;;;;;5063799;28;20385;-37
2021/06/22 08:59:16;;;;;;;1.10;0.73;;;25.70;70.50;;;;;;5064048;28;20036;-37
2021/06/22 09:01:43;;;;;;;1.60;0.60;;;25.70;70.50;;;;;;5063388;28;20055;-37
2021/06/22 09:04:09;;;;;;;1.20;0.70;;;25.70;70.50;;;;;;5063843;28;20025;-38
2021/06/22 09:06:42;;;;;;;0.93;0.63;;;25.70;70.50;;;;;;5062012;28;20043;-38
2021/06/22 09:09:08;;;;;;;0.82;0.68;;;25.70;70.50;;;;;;5062717;28;20041;-38
2021/06/22 09:11:35;;;;;;;3.22;0.73;;;25.70;70.50;;;;;;5063382;28;20124;-38
2021/06/22 09:14:03;;;;;;;0.80;0.60;;;25.70;70.50;;;;;;5062237;28;20033;-38
2021/06/22 09:16:29;;;;;;;0.85;0.70;;;25.70;70.50;;;;;;5061899;28;20278;-37
2021/06/22 09:19:06;;;;;;;1.35;0.85;;;25.70;70.50;;;;;;5063410;28;20063;-37
2021/06/22 09:21:42;;;;;;;1.33;0.63;;;25.70;70.50;;;;;;5062995;28;20092;-37
2021/06/22 09:24:20;;;;;;;0.80;0.60;;;25.60;70.40;;;;;;5054015;28;20037;-37
2021/06/22 09:26:48;;;;;;;1.95;0.70;;;25.60;70.40;;;;;;5050518;28;20037;-36
2021/06/22 09:29:16;;;;;;;1.30;0.70;;;25.60;70.40;;;;;;5052959;28;20075;-37
2021/06/22 09:31:55;;;;;;;0.55;0.40;;;25.60;70.50;;;;;;5052868;28;20029;-37
2021/06/22 09:34:25;;;;;;;0.73;0.60;;;25.60;70.50;;;;;;5055574;28;20111;-37
2021/06/22 09:36:55;;;;;;;1.13;0.50;;;25.60;70.50;;;;;;5052041;28;20028;-38
2021/06/22 09:39:22;;;;;;;1.30;0.65;;;25.60;70.50;;;;;;5049555;28;20029;-38
2021/06/22 09:41:49;;;;;;;1.75;0.45;;;25.60;70.50;;;;;;5053552;28;20112;-37
2021/06/22 09:44:17;;;;;;;0.85;0.70;;;25.60;70.60;;;;;;5049897;28;20048;-38
2021/06/22 09:46:52;;;;;;;1.40;0.52;;;25.60;70.60;;;;;;5050288;28;20051;-37
2021/06/22 09:49:29;;;;;;;0.70;0.60;;;25.60;70.60;;;;;;5054246;28;20659;-38
2021/06/22 09:52:04;;;;;;;;;;;25.60;70.50;;;;;;5051707;28;20126;-37
2021/06/22 09:54:46;;;;;;;0.50;0.50;;;25.60;70.70;;;;;;5061565;28;19919;-38
2021/06/22 09:57:23;;;;;;;0.80;0.60;;;25.60;70.60;;;;;;5062680;28;20021;-37
2021/06/22 09:59:50;;;;;;;2.95;0.70;;;25.50;70.60;;;;;;5063053;28;20025;-38
2021/06/22 10:02:16;;;;;;;1.27;0.77;;;25.50;70.60;;;;;;5062459;28;20588;-38
2021/06/22 10:04:49;;;;;;;2.50;0.60;;;25.50;70.70;;;;;;5061842;28;20021;-38
2021/06/22 10:07:17;;;;;;;1.88;0.68;;;25.50;70.60;;;;;;5060041;28;20032;-38
2021/06/22 10:09:43;;;;;;;1.60;0.60;;;25.50;70.70;;;;;;5062512;28;20025;-37
2021/06/22 10:12:13;;;;;;;1.38;0.70;;;25.50;70.70;;;;;;5060737;28;20051;-38
2021/06/22 10:14:47;;;;;;;1.13;0.63;;;25.50;70.60;;;;;;5062833;28;20048;-38
2021/06/22 10:17:21;;;;;;;1.00;0.60;;;25.50;70.70;;;;;;5043029;28;20081;-38
2021/06/22 10:19:48;;;;;;;1.20;0.50;;;25.50;70.60;;;;;;5042532;28;20057;-38
2021/06/22 10:22:16;;;;;;;1.92;0.70;;;25.50;70.60;;;;;;5042574;28;20036;-39
2021/06/22 10:24:43;;;;;;;0.75;0.60;;;25.50;70.70;;;;;;5062508;28;20028;-38
2021/06/22 10:27:10;;;;;;;;;;;25.50;70.70;;;;;;5055153;28;20030;-38
2021/06/22 10:29:36;;;;;;;2.33;0.60;;;25.40;70.70;;;;;;5042820;28;20003;-38
2021/06/22 10:32:02;;;;;;;0.80;0.60;;;25.40;70.60;;;;;;5042776;28;20018;-38
2021/06/22 10:34:30;;;;;;;1.17;0.60;;;25.40;70.60;;;;;;5042507;28;20048;-38
2021/06/22 10:37:02;;;;;;;1.50;0.55;;;25.40;70.70;;;;;;5041311;28;20052;-38
2021/06/22 10:39:40;;;;;;;0.70;0.52;;;25.40;70.60;;;;;;5059227;28;20031;-38
2021/06/22 10:42:07;;;;;;;;;;;25.40;70.70;;;;;;5062777;28;20110;-38
2021/06/22 10:44:43;;;;;;;1.50;0.50;;;25.40;70.70;;;;;;5062324;28;19908;-38
2021/06/22 10:47:26;;;;;;;0.80;0.60;;;25.40;70.80;;;;;;5061110;28;20064;-38
2021/06/22 10:50:00;;;;;;;1.13;0.60;;;25.40;70.80;;;;;;5062386;28;20033;-37
2021/06/22 10:52:41;;;;;;;0.80;0.50;;;25.40;70.90;;;;;;5061814;28;20025;-36
2021/06/22 10:55:34;;;;;;;0.43;0.43;;;25.40;70.90;;;;;;5062104;28;20060;-38
2021/06/22 10:58:07;;;;;;;0.60;0.50;;;25.40;70.90;;;;;;5061274;28;20060;-38
2021/06/22 11:00:54;;;;;;;1.38;0.60;;;25.40;71.00;;;;;;5062389;28;20025;-38
2021/06/22 11:03:26;;;;;;;1.33;0.70;;;25.40;70.90;;;;;;5062108;28;20036;-38
2021/06/22 11:06:14;;;;;;;0.82;0.63;;;25.40;70.90;;;;;;5062244;28;20051;-40
2021/06/22 11:08:41;;;;;;;1.58;0.50;;;25.40;70.90;;;;;;5060130;28;20029;-38
2021/06/22 11:11:10;;;;;;;1.85;0.70;;;25.30;70.80;;;;;;5062146;28;20214;-37
2021/06/22 11:13:57;;;;;;;0.85;0.65;;;25.30;70.80;;;;;;5062746;28;20032;-37
2021/06/22 11:16:25;;;;;;;1.13;0.50;;;25.30;70.80;;;;;;5065451;28;20045;-37
2021/06/22 11:18:54;;;;;;;0.75;0.55;;;25.30;70.80;;;;;;5065904;28;20028;-37
2021/06/22 11:21:33;;;;;;;1.35;0.70;;;25.30;70.80;;;;;;5065625;28;20028;-37
2021/06/22 11:24:08;;;;;;;0.82;0.43;;;25.30;70.80;;;;;;5059270;28;20025;-37
2021/06/22 11:26:47;;;;;;;1.85;0.60;;;25.30;70.80;;;;;;5054763;28;20436;-36
2021/06/22 11:29:22;;;;;;;1.55;0.60;;;25.30;70.80;;;;;;5056468;28;20097;-37
2021/06/22 11:31:51;;;;;;;1.77;0.70;;;25.30;70.80;;;;;;5057348;28;20039;-37
2021/06/22 11:34:28;;;;;;;0.77;0.68;;;25.30;70.80;;;;;;5051774;28;20018;-37
2021/06/22 11:36:58;;;;;;;0.82;0.63;;;25.30;70.80;;;;;;5055000;28;20029;-37
2021/06/22 11:39:30;;;;;;;1.27;0.50;;;25.30;71.00;;;;;;5055320;28;20039;-38
2021/06/22 11:42:09;;;;;;;0.90;0.40;;;25.30;70.90;;;;;;5051329;28;20025;-37
2021/06/22 11:44:46;;;;;;;1.23;0.60;;;25.20;71.00;;;;;;5055199;28;20048;-38
2021/06/22 11:47:31;;;;;;;1.30;0.50;;;25.20;71.00;;;;;;5052732;28;20478;-38
2021/06/22 11:50:00;;;;;;;0.68;0.43;;;25.20;71.00;;;;;;5054119;28;20073;-38
2021/06/22 11:52:43;;;;;;;0.85;0.65;;;25.20;71.80;;;;;;5053067;28;20044;-37
2021/06/22 11:55:15;;;;;;;1.35;0.70;;;25.20;71.00;;;;;;5064946;28;20032;-38
2021/06/22 11:57:46;;;;;;;0.70;0.50;;;25.20;71.10;;;;;;5064719;28;20690;-38
2021/06/22 12:00:16;;;;;;;0.80;0.70;;;25.20;71.10;;;;;;5065193;28;20047;-38
2021/06/22 12:03:08;;;;;;;0.60;0.60;;;25.20;71.10;;;;;;5065019;28;20036;-38
2021/06/22 12:05:35;;;;;;;1.17;0.40;;;25.20;71.00;;;;;;5063614;28;20036;-38
2021/06/22 12:08:05;;;;;;;0.90;0.52;;;25.20;71.00;;;;;;5064225;28;20039;-38
2021/06/22 12:10:51;;;;;;;0.82;0.50;;;25.20;71.00;;;;;;5064539;28;20060;-38
2021/06/22 12:13:33;;;;;;;3.72;0.57;;;25.20;71.00;;;;;;5061037;28;20029;-38
2021/06/22 12:16:13;;;;;;;0.77;0.60;;;25.20;71.00;;;;;;5064364;28;20064;-38
2021/06/22 12:18:39;;;;;;;1.05;0.60;;;25.20;71.00;;;;;;5064674;28;20039;-38
2021/06/22 12:21:05;;;;;;;2.38;0.50;;;25.20;71.00;;;;;;5064519;28;20063;-38
2021/06/22 12:23:31;;;;;;;0.55;0.50;;;25.20;71.10;;;;;;5056188;28;20029;-38
2021/06/22 12:25:58;;;;;;;0.75;0.65;;;25.20;71.10;;;;;;5044321;28;20033;-38
2021/06/22 12:28:24;;;;;;;1.58;0.68;;;25.20;71.10;;;;;;5044296;28;20053;-37
2021/06/22 12:31:00;;;;;;;0.55;0.45;;;25.10;71.00;;;;;;5044334;28;20363;-37
2021/06/22 12:33:28;;;;;;;0.75;0.50;;;25.10;70.90;;;;;;5063167;28;20032;-37
2021/06/22 12:35:59;;;;;;;0.50;0.38;;;25.10;71.00;;;;;;5064316;28;20021;-37
2021/06/22 12:38:25;;;;;;;2.00;0.50;;;25.10;71.00;;;;;;5063908;28;20052;-37
2021/06/22 12:40:56;;;;;;;0.70;0.47;;;25.10;71.10;;;;;;5063971;28;20025;-37
2021/06/22 12:43:51;;;;;;;0.90;0.60;;;25.10;71.10;;;;;;5063952;28;20367;-37
2021/06/22 12:46:24;;;;;;;0.80;0.50;;;25.10;71.20;;;;;;5063928;28;20029;-37
2021/06/22 12:49:10;;;;;;;0.75;0.57;;;25.10;71.10;;;;;;5064093;28;20044;-37
2021/06/22 12:51:49;;;;;;;0.60;0.57;;;25.10;71.20;;;;;;5062575;28;20020;-37
2021/06/22 12:54:15;;;;;;;0.75;0.50;;;25.10;71.20;;;;;;5063023;28;20049;-36
2021/06/22 12:56:58;;;;;;;1.10;0.60;;;25.10;71.30;;;;;;5045808;28;20029;-37